Time;durP1;ratioP1;P1;durP2;ratioP2;P2;SDS_P1;SDS_P2;PMS_P1;PMS_P2;Temp;Humidity;BMP_temperature;BMP_pressure;BME280_temperature;BME280_humidity;BME280_pressure;Samples;Min_cycle;Max_cycle;Signal;HPM_P1;HPM_P2
2020/12/31 06:02:20;;;;;;;6.17;4.10;;;1.90;97.30;;;;;;5219848;23;20512;-70
2020/12/31 06:04:46;;;;;;;12.33;5.77;;;1.90;97.30;;;;;;4977196;28;20410;-69
2020/12/31 06:07:32;;;;;;;7.73;4.40;;;1.80;97.30;;;;;;4976723;28;20961;-70
2020/12/31 06:10:06;;;;;;;9.00;5.37;;;1.80;97.30;;;;;;4975644;28;20417;-70
2020/12/31 06:12:59;;;;;;;7.57;4.90;;;1.80;97.30;;;;;;4975982;28;20461;-69
2020/12/31 06:15:35;;;;;;;6.73;4.53;;;1.70;97.30;;;;;;4976290;28;20497;-70
2020/12/31 06:18:02;;;;;;;8.87;5.50;;;1.70;97.30;;;;;;4975610;28;20418;-69
2020/12/31 06:20:30;;;;;;;6.83;5.10;;;1.60;97.30;;;;;;4975743;28;20469;-69
2020/12/31 06:23:12;;;;;;;7.90;5.30;;;1.60;97.30;;;;;;4975753;28;20417;-70
2020/12/31 06:25:46;;;;;;;8.70;5.33;;;1.60;97.30;;;;;;4976992;28;20484;-69
2020/12/31 06:28:15;;;;;;;10.00;5.77;;;1.50;97.30;;;;;;4976841;28;20922;-69
2020/12/31 06:30:43;;;;;;;8.53;5.30;;;1.50;97.30;;;;;;4975278;28;20455;-70
2020/12/31 06:33:30;;;;;;;10.13;5.33;;;1.40;97.30;;;;;;4975144;28;20425;-70
2020/12/31 06:35:58;;;;;;;9.60;5.60;;;1.40;97.30;;;;;;4976486;28;20414;-70
2020/12/31 06:38:29;;;;;;;10.97;6.07;;;1.40;97.30;;;;;;4975275;28;20994;-69
2020/12/31 06:40:55;;;;;;;10.10;4.90;;;1.30;97.30;;;;;;4975003;28;20461;-70
2020/12/31 06:43:33;;;;;;;7.57;5.40;;;1.30;97.30;;;;;;4976305;28;20465;-69
2020/12/31 06:45:59;;;;;;;11.33;6.40;;;1.30;97.30;;;;;;4975060;28;20448;-70
2020/12/31 06:48:25;;;;;;;6.97;5.03;;;1.30;97.30;;;;;;4974870;28;20446;-69
2020/12/31 06:51:07;;;;;;;8.43;5.27;;;1.30;97.30;;;;;;4976092;28;20738;-69
2020/12/31 06:53:47;;;;;;;10.50;5.70;;;1.30;97.30;;;;;;4974898;28;20182;-72
2020/12/31 06:56:13;;;;;;;8.80;5.30;;;1.30;97.30;;;;;;4974869;28;20858;-69
2020/12/31 06:58:41;;;;;;;10.33;6.13;;;1.20;97.30;;;;;;4974721;28;20420;-69
2020/12/31 07:01:29;;;;;;;10.03;6.03;;;1.10;97.30;;;;;;4974161;28;21013;-70
2020/12/31 07:03:58;;;;;;;7.87;5.40;;;1.00;97.30;;;;;;4973807;28;20409;-70
2020/12/31 07:06:26;;;;;;;10.90;6.23;;;0.90;97.30;;;;;;4974716;28;20461;-69
2020/12/31 07:09:04;;;;;;;8.13;4.97;;;0.90;97.30;;;;;;4972820;28;20824;-70
2020/12/31 07:11:35;;;;;;;8.40;5.53;;;0.90;97.30;;;;;;4975429;28;20548;-70
2020/12/31 07:14:03;;;;;;;8.80;5.60;;;0.80;97.30;;;;;;4973901;28;20417;-70
2020/12/31 07:16:54;;;;;;;10.43;6.23;;;0.80;97.30;;;;;;4974187;28;20492;-70
2020/12/31 07:19:33;;;;;;;12.60;5.93;;;0.80;97.30;;;;;;4972299;28;20508;-69
2020/12/31 07:21:58;;;;;;;12.10;6.50;;;0.70;97.30;;;;;;4972425;28;20436;-70
2020/12/31 07:24:29;;;;;;;11.00;6.53;;;0.70;97.30;;;;;;4975339;28;20489;-69
2020/12/31 07:26:59;;;;;;;10.00;6.40;;;0.70;97.30;;;;;;4974171;28;20173;-69
2020/12/31 07:29:29;;;;;;;10.37;5.93;;;0.70;97.30;;;;;;4974259;28;20480;-70
2020/12/31 07:31:55;;;;;;;10.10;6.37;;;0.70;97.30;;;;;;4975593;28;20932;-69
2020/12/31 07:34:29;;;;;;;11.07;6.40;;;0.80;97.30;;;;;;4974296;28;20432;-69
2020/12/31 07:36:58;;;;;;;10.37;6.00;;;0.80;97.30;;;;;;4974403;28;20650;-70
2020/12/31 07:39:24;;;;;;;10.03;6.20;;;0.80;97.30;;;;;;4975331;28;20548;-70
2020/12/31 07:41:50;;;;;;;9.50;6.23;;;0.90;97.30;;;;;;4974284;28;20501;-69
2020/12/31 07:44:16;;;;;;;12.87;6.63;;;0.90;97.30;;;;;;4975180;28;20421;-69
2020/12/31 07:46:44;;;;;;;12.53;6.97;;;0.90;97.30;;;;;;4975475;28;20414;-69
2020/12/31 07:49:11;;;;;;;11.80;6.33;;;1.00;97.30;;;;;;4973892;28;20536;-70
2020/12/31 07:51:38;;;;;;;12.03;6.40;;;1.00;97.30;;;;;;4974218;28;20441;-70
2020/12/31 07:54:03;;;;;;;11.00;6.00;;;1.10;97.30;;;;;;4974080;28;20418;-70
2020/12/31 07:56:31;;;;;;;8.47;5.77;;;1.10;97.30;;;;;;4974216;28;20432;-69
2020/12/31 07:59:01;;;;;;;9.80;5.57;;;1.20;97.30;;;;;;4974227;28;20553;-69
2020/12/31 08:01:27;;;;;;;11.73;6.90;;;1.30;97.30;;;;;;4973723;28;20468;-70
2020/12/31 08:03:53;;;;;;;9.87;5.60;;;1.40;97.30;;;;;;4974004;28;20414;-69
2020/12/31 08:06:27;;;;;;;9.37;6.10;;;1.60;97.30;;;;;;4974258;28;20265;-70
2020/12/31 08:08:52;;;;;;;11.80;6.27;;;1.70;97.30;;;;;;4975439;28;20170;-69
2020/12/31 08:11:18;;;;;;;10.00;5.90;;;1.90;97.30;;;;;;4975125;28;20491;-70
2020/12/31 08:13:45;;;;;;;8.30;5.53;;;2.10;97.30;;;;;;4975056;28;20178;-69
2020/12/31 08:16:15;;;;;;;8.37;5.23;;;2.20;97.30;;;;;;4973653;28;20270;-71
2020/12/31 08:18:41;;;;;;;8.03;5.33;;;2.30;97.30;;;;;;4974444;28;20963;-70
2020/12/31 08:21:08;;;;;;;7.93;5.33;;;2.40;97.30;;;;;;4972782;28;20995;-69
2020/12/31 08:23:38;;;;;;;8.80;5.47;;;2.50;97.30;;;;;;4975011;28;20420;-69
2020/12/31 08:26:08;;;;;;;8.63;5.20;;;2.60;97.30;;;;;;4973624;28;20422;-69
2020/12/31 08:28:37;;;;;;;10.47;5.70;;;2.60;97.30;;;;;;4974402;28;20420;-70
2020/12/31 08:31:14;;;;;;;9.67;5.20;;;2.70;97.30;;;;;;4973425;28;20978;-69
2020/12/31 08:33:42;;;;;;;7.60;5.10;;;2.70;97.30;;;;;;4973502;28;20457;-69
2020/12/31 08:36:08;;;;;;;8.53;4.90;;;2.80;97.30;;;;;;4973338;28;20869;-69
2020/12/31 08:38:39;;;;;;;8.93;5.40;;;2.80;97.30;;;;;;4974339;28;20416;-69
2020/12/31 08:41:08;;;;;;;8.17;5.10;;;2.90;97.30;;;;;;4973028;28;21032;-70
2020/12/31 08:43:39;;;;;;;9.23;5.70;;;2.90;97.30;;;;;;4973307;28;20833;-70
2020/12/31 08:46:17;;;;;;;6.60;4.93;;;3.00;97.30;;;;;;4976517;28;20446;-69
2020/12/31 08:48:51;;;;;;;8.23;5.07;;;3.00;97.30;;;;;;4955120;28;20426;-70
2020/12/31 08:51:18;;;;;;;8.57;5.70;;;3.00;97.30;;;;;;4967709;28;20442;-70
2020/12/31 08:53:48;;;;;;;8.40;5.13;;;3.10;97.30;;;;;;4974255;28;20553;-70
2020/12/31 08:56:14;;;;;;;7.80;4.73;;;3.10;97.30;;;;;;4973263;28;20469;-70
2020/12/31 08:58:40;;;;;;;8.00;5.50;;;3.10;97.30;;;;;;4974452;28;20545;-70
2020/12/31 09:01:06;;;;;;;6.13;4.47;;;3.20;97.30;;;;;;4972826;28;20576;-70
2020/12/31 09:03:32;;;;;;;7.87;4.37;;;3.20;97.30;;;;;;4969520;28;20187;-71
2020/12/31 09:06:03;;;;;;;6.70;4.30;;;3.30;97.30;;;;;;4972793;28;20210;-70
2020/12/31 09:08:32;;;;;;;6.90;3.97;;;3.30;97.30;;;;;;4973086;28;20209;-70
2020/12/31 09:11:03;;;;;;;8.97;5.10;;;3.30;97.30;;;;;;4972879;28;20457;-70
2020/12/31 09:13:36;;;;;;;7.40;4.30;;;3.40;97.30;;;;;;4973052;28;20557;-69
2020/12/31 09:16:13;;;;;;;7.30;4.47;;;3.40;97.30;;;;;;4972684;28;20418;-70
2020/12/31 09:18:43;;;;;;;6.73;4.37;;;3.40;97.30;;;;;;4974814;28;20429;-70
2020/12/31 09:21:11;;;;;;;6.40;4.90;;;3.40;97.30;;;;;;4972613;28;20620;-70
2020/12/31 09:23:37;;;;;;;6.50;4.53;;;3.50;97.30;;;;;;4973219;28;20446;-70
2020/12/31 09:26:05;;;;;;;7.37;4.40;;;3.50;97.30;;;;;;4972783;28;20525;-70
2020/12/31 09:28:31;;;;;;;9.53;5.57;;;3.60;97.30;;;;;;4972739;28;20489;-70
2020/12/31 09:31:12;;;;;;;6.10;4.20;;;3.70;97.30;;;;;;4973623;28;20445;-70
2020/12/31 09:33:38;;;;;;;6.77;4.60;;;3.70;97.30;;;;;;4976797;28;20432;-69
2020/12/31 09:36:03;;;;;;;7.20;4.50;;;3.70;97.30;;;;;;4977664;28;20512;-70
2020/12/31 09:38:29;;;;;;;8.40;4.73;;;3.70;97.30;;;;;;4976809;28;20707;-69
2020/12/31 09:40:55;;;;;;;6.93;4.80;;;3.80;97.30;;;;;;4977766;28;20297;-70
2020/12/31 09:43:20;;;;;;;6.83;4.40;;;3.90;97.30;;;;;;4976593;28;20257;-70
2020/12/31 09:45:46;;;;;;;8.07;4.63;;;3.90;97.30;;;;;;4976512;28;20206;-69
2020/12/31 09:48:12;;;;;;;6.73;4.20;;;4.00;97.30;;;;;;4976168;28;20175;-70
2020/12/31 09:50:38;;;;;;;5.40;4.00;;;4.00;97.30;;;;;;4978005;28;20226;-70
2020/12/31 09:53:04;;;;;;;8.33;5.20;;;4.10;97.30;;;;;;4977718;28;20420;-67
2020/12/31 09:55:34;;;;;;;6.80;5.13;;;4.10;97.30;;;;;;4977776;28;20414;-69
2020/12/31 09:58:02;;;;;;;9.83;4.53;;;4.20;97.30;;;;;;4975080;28;20630;-69
2020/12/31 10:00:27;;;;;;;8.27;5.27;;;4.30;97.30;;;;;;4976777;28;20457;-71
2020/12/31 10:02:54;;;;;;;12.50;5.27;;;4.30;97.30;;;;;;4976139;28;20872;-70
2020/12/31 10:05:20;;;;;;;8.30;5.23;;;4.40;97.30;;;;;;4977441;28;20194;-70
2020/12/31 10:07:45;;;;;;;8.80;4.40;;;4.40;97.30;;;;;;4976264;28;20413;-69
2020/12/31 10:10:11;;;;;;;9.73;4.73;;;4.40;97.30;;;;;;4977395;28;20428;-70
2020/12/31 10:12:37;;;;;;;6.10;4.30;;;4.40;97.30;;;;;;4976524;28;20680;-70
2020/12/31 10:15:02;;;;;;;6.90;4.40;;;4.50;97.30;;;;;;4975829;28;20178;-70
2020/12/31 10:17:28;;;;;;;5.60;3.90;;;4.50;97.30;;;;;;4977425;28;20422;-71
2020/12/31 10:19:56;;;;;;;5.77;3.70;;;4.60;97.30;;;;;;4975960;28;20199;-70
2020/12/31 10:22:22;;;;;;;7.10;4.83;;;4.60;96.90;;;;;;4975065;28;20194;-70
2020/12/31 10:24:48;;;;;;;7.03;4.27;;;4.70;96.80;;;;;;4977182;28;20453;-70
2020/12/31 10:27:15;;;;;;;6.40;4.77;;;4.70;96.70;;;;;;4977289;28;20402;-67
2020/12/31 10:29:41;;;;;;;6.13;3.87;;;4.70;96.70;;;;;;4977124;28;20171;-68
2020/12/31 10:32:06;;;;;;;13.80;4.63;;;4.50;96.50;;;;;;4975619;28;20864;-68
2020/12/31 10:34:32;;;;;;;6.67;4.80;;;4.50;97.00;;;;;;4975628;28;20601;-67
2020/12/31 10:36:58;;;;;;;8.10;5.00;;;4.50;97.20;;;;;;4975217;28;20664;-67
2020/12/31 10:39:25;;;;;;;6.90;4.77;;;4.50;97.00;;;;;;4975643;28;20198;-67
2020/12/31 10:41:51;;;;;;;7.00;4.70;;;4.70;97.10;;;;;;4976740;28;20426;-67
2020/12/31 10:44:18;;;;;;;10.37;5.10;;;4.90;97.20;;;;;;4976118;28;20414;-67
2020/12/31 10:46:44;;;;;;;7.53;4.70;;;5.10;96.60;;;;;;4975713;28;20791;-67
2020/12/31 10:49:10;;;;;;;4.80;4.20;;;5.10;95.80;;;;;;4975465;28;20414;-68
2020/12/31 10:51:37;;;;;;;6.53;4.67;;;5.20;95.30;;;;;;4976611;28;20786;-67
2020/12/31 10:54:03;;;;;;;7.53;4.63;;;5.20;95.10;;;;;;4975744;28;20931;-67
2020/12/31 10:56:30;;;;;;;6.23;4.57;;;5.30;95.10;;;;;;4975159;28;20422;-67
2020/12/31 10:58:56;;;;;;;6.73;4.50;;;5.40;95.20;;;;;;4976114;28;20410;-68
2020/12/31 11:01:21;;;;;;;7.60;4.70;;;5.50;94.60;;;;;;4975862;28;20453;-67
2020/12/31 11:03:47;;;;;;;8.20;4.53;;;5.70;94.70;;;;;;4976332;28;20938;-68
2020/12/31 11:06:25;;;;;;;7.40;4.37;;;5.70;93.80;;;;;;4975181;28;20187;-67
2020/12/31 11:08:53;;;;;;;6.20;4.13;;;5.70;93.30;;;;;;4975999;28;20197;-67
2020/12/31 11:11:30;;;;;;;8.53;5.03;;;5.60;93.40;;;;;;4975616;28;21018;-68
2020/12/31 11:13:56;;;;;;;5.70;4.33;;;5.70;93.80;;;;;;4975713;28;20426;-68
2020/12/31 11:16:22;;;;;;;7.07;4.50;;;5.80;93.90;;;;;;4976841;28;20410;-68
2020/12/31 11:18:48;;;;;;;6.97;4.30;;;5.80;93.40;;;;;;4976090;28;20438;-68
2020/12/31 11:21:15;;;;;;;6.43;4.00;;;5.70;93.40;;;;;;4974609;28;20469;-69
2020/12/31 11:23:41;;;;;;;6.80;4.70;;;5.60;93.20;;;;;;4974678;28;20185;-67
2020/12/31 11:26:21;;;;;;;6.50;4.20;;;5.60;93.40;;;;;;4975795;28;20468;-68
2020/12/31 11:28:48;;;;;;;7.30;4.80;;;5.70;93.30;;;;;;4974507;28;20550;-68
2020/12/31 11:31:16;;;;;;;7.17;4.50;;;5.60;93.30;;;;;;4975596;28;20943;-68
2020/12/31 11:33:46;;;;;;;7.40;4.10;;;5.80;94.00;;;;;;4969172;28;20434;-68
2020/12/31 11:36:12;;;;;;;7.07;4.07;;;5.80;93.80;;;;;;4974660;28;20521;-68
2020/12/31 11:38:39;;;;;;;7.30;4.97;;;6.00;93.50;;;;;;4975040;28;20426;-68
2020/12/31 11:41:06;;;;;;;6.50;4.27;;;6.00;93.00;;;;;;4974419;28;20524;-69
2020/12/31 11:43:32;;;;;;;9.07;4.93;;;6.10;92.90;;;;;;4975523;28;20927;-69
2020/12/31 11:45:59;;;;;;;8.40;3.90;;;6.10;93.00;;;;;;4974662;28;20425;-69
2020/12/31 11:48:25;;;;;;;6.90;4.30;;;6.20;92.90;;;;;;4975211;28;20493;-70
2020/12/31 11:50:52;;;;;;;7.57;4.40;;;6.20;92.90;;;;;;4974199;28;20442;-69
2020/12/31 11:53:21;;;;;;;8.20;5.00;;;6.20;92.60;;;;;;4975194;28;20425;-69
2020/12/31 11:55:50;;;;;;;7.50;4.63;;;6.40;92.70;;;;;;4975092;28;20422;-70
2020/12/31 11:58:17;;;;;;;8.93;5.00;;;6.70;92.00;;;;;;4973286;28;20445;-70
2020/12/31 12:00:44;;;;;;;7.00;4.43;;;6.90;91.40;;;;;;4975097;28;20469;-70
2020/12/31 12:03:12;;;;;;;7.47;4.80;;;6.90;90.90;;;;;;4973621;28;20835;-71
2020/12/31 12:05:38;;;;;;;8.63;4.37;;;6.90;91.20;;;;;;4973682;28;20414;-70
2020/12/31 12:08:07;;;;;;;7.17;4.70;;;6.90;90.80;;;;;;4974917;28;20414;-69
2020/12/31 12:10:33;;;;;;;6.97;4.77;;;7.10;91.00;;;;;;4975334;28;20229;-70
2020/12/31 12:12:59;;;;;;;7.83;5.17;;;7.10;90.40;;;;;;4975156;28;20430;-70
2020/12/31 12:15:25;;;;;;;7.77;4.90;;;7.00;90.40;;;;;;4973849;28;20425;-71
2020/12/31 12:17:51;;;;;;;7.20;4.90;;;7.20;91.10;;;;;;4973350;28;20436;-71
2020/12/31 12:20:21;;;;;;;5.80;4.20;;;7.50;90.00;;;;;;4973498;28;20301;-71
2020/12/31 12:22:51;;;;;;;7.73;4.90;;;7.60;89.60;;;;;;4974752;28;20938;-70
2020/12/31 12:25:16;;;;;;;6.17;4.20;;;7.70;89.60;;;;;;4973207;28;20792;-70
2020/12/31 12:27:42;;;;;;;9.70;4.93;;;7.50;89.40;;;;;;4973371;28;20420;-70
2020/12/31 12:30:10;;;;;;;7.07;4.73;;;7.60;89.10;;;;;;4973921;28;20175;-71
2020/12/31 12:32:37;;;;;;;10.77;5.00;;;7.80;88.70;;;;;;4973444;28;20691;-70
2020/12/31 12:35:04;;;;;;;10.70;5.03;;;8.00;88.40;;;;;;4973183;28;20429;-70
2020/12/31 12:37:30;;;;;;;6.90;4.47;;;8.20;88.30;;;;;;4974441;28;20797;-70
2020/12/31 12:39:56;;;;;;;11.30;5.43;;;8.10;87.10;;;;;;4974494;28;20552;-69
2020/12/31 12:42:21;;;;;;;5.10;4.20;;;8.00;87.90;;;;;;4974619;28;20190;-70
2020/12/31 12:44:47;;;;;;;9.40;4.90;;;7.50;88.00;;;;;;4972840;28;20228;-71
2020/12/31 12:47:12;;;;;;;5.77;3.80;;;7.20;89.00;;;;;;4971830;28;20398;-70
2020/12/31 12:49:42;;;;;;;5.77;4.50;;;6.90;89.30;;;;;;4973146;28;20549;-70
2020/12/31 12:52:08;;;;;;;7.47;4.67;;;6.60;90.10;;;;;;4973440;28;20714;-69
2020/12/31 12:54:34;;;;;;;6.37;4.60;;;6.50;90.90;;;;;;4974559;28;20433;-70
2020/12/31 12:57:00;;;;;;;8.80;4.80;;;6.60;91.00;;;;;;4973088;28;20533;-70
2020/12/31 12:59:26;;;;;;;7.77;4.93;;;6.90;91.30;;;;;;4972554;28;20210;-70
2020/12/31 13:01:52;;;;;;;6.63;4.90;;;7.10;90.00;;;;;;4972405;28;20210;-71
2020/12/31 13:04:17;;;;;;;8.03;4.93;;;7.20;88.80;;;;;;4972975;28;20449;-70
2020/12/31 13:06:48;;;;;;;10.50;5.47;;;7.20;89.10;;;;;;4973807;28;20927;-71
2020/12/31 13:09:17;;;;;;;11.83;7.60;;;7.40;89.30;;;;;;4974198;28;20971;-70
2020/12/31 13:11:43;;;;;;;8.17;5.30;;;7.50;88.70;;;;;;4972984;28;20813;-70
2020/12/31 13:14:10;;;;;;;8.30;5.50;;;7.60;88.20;;;;;;4973221;28;20422;-69
2020/12/31 13:16:36;;;;;;;9.97;6.27;;;7.50;88.50;;;;;;4972941;28;20426;-69
2020/12/31 13:19:02;;;;;;;7.83;5.03;;;7.40;88.60;;;;;;4972918;28;20430;-69
2020/12/31 13:21:27;;;;;;;8.67;5.53;;;7.30;88.80;;;;;;4974226;28;20437;-69
2020/12/31 13:23:53;;;;;;;6.63;5.23;;;7.30;89.10;;;;;;4974243;28;20406;-69
2020/12/31 13:26:19;;;;;;;9.20;5.07;;;7.30;89.70;;;;;;4972979;28;20175;-69
2020/12/31 13:28:55;;;;;;;6.93;5.17;;;7.10;89.20;;;;;;4972966;28;20322;-69
2020/12/31 13:31:21;;;;;;;9.60;5.70;;;6.70;90.00;;;;;;4972757;28;20198;-70
2020/12/31 13:33:50;;;;;;;7.27;4.70;;;6.50;90.70;;;;;;4972485;28;20813;-69
2020/12/31 13:36:17;;;;;;;11.10;5.17;;;6.30;90.90;;;;;;4973632;28;20182;-70
2020/12/31 13:38:43;;;;;;;7.43;4.97;;;5.90;91.20;;;;;;4972187;28;20418;-70
2020/12/31 13:41:12;;;;;;;9.23;5.10;;;5.70;91.40;;;;;;4972123;28;20551;-68
2020/12/31 13:43:38;;;;;;;9.60;5.40;;;5.60;91.70;;;;;;4973720;28;20456;-69
2020/12/31 13:46:04;;;;;;;8.90;5.30;;;5.40;92.20;;;;;;4973626;28;20414;-69
2020/12/31 13:48:29;;;;;;;8.53;5.80;;;5.30;92.30;;;;;;4972043;28;20429;-70
2020/12/31 13:50:55;;;;;;;7.73;5.43;;;5.20;92.90;;;;;;4972155;28;20325;-69
2020/12/31 13:53:21;;;;;;;6.77;4.67;;;5.10;93.00;;;;;;4972247;28;20306;-69
2020/12/31 13:55:46;;;;;;;9.23;5.70;;;5.10;93.30;;;;;;4973777;28;20664;-69
2020/12/31 13:58:12;;;;;;;7.50;5.30;;;5.00;93.50;;;;;;4973713;28;20667;-69
2020/12/31 14:00:38;;;;;;;7.27;5.10;;;5.00;93.60;;;;;;4973169;28;20222;-69
2020/12/31 14:03:04;;;;;;;6.93;4.97;;;5.00;93.80;;;;;;4972345;28;20179;-69
2020/12/31 14:05:29;;;;;;;9.73;5.80;;;4.90;93.70;;;;;;4972648;28;20182;-69
2020/12/31 14:07:55;;;;;;;7.63;4.53;;;4.90;93.80;;;;;;4971736;28;21027;-69
2020/12/31 14:10:21;;;;;;;10.70;5.70;;;4.90;94.10;;;;;;4977252;28;20182;-70
2020/12/31 14:12:46;;;;;;;7.43;4.70;;;4.90;94.20;;;;;;4974550;28;20203;-68
2020/12/31 14:15:14;;;;;;;10.20;5.40;;;4.90;94.20;;;;;;4972493;28;20273;-68
2020/12/31 14:17:40;;;;;;;11.07;6.63;;;4.90;94.40;;;;;;4971532;28;20179;-69
2020/12/31 14:20:06;;;;;;;9.10;6.20;;;4.80;94.50;;;;;;4974594;28;20465;-69
2020/12/31 14:22:32;;;;;;;7.27;5.23;;;4.80;94.70;;;;;;4974649;28;20223;-71
2020/12/31 14:24:58;;;;;;;10.20;5.63;;;4.80;94.90;;;;;;4975616;28;20440;-69
2020/12/31 14:27:23;;;;;;;8.50;5.60;;;4.80;94.90;;;;;;4976235;28;20178;-70
2020/12/31 14:29:49;;;;;;;8.17;5.50;;;4.80;95.20;;;;;;4975298;28;20179;-69
2020/12/31 14:32:15;;;;;;;10.40;5.20;;;4.70;95.50;;;;;;4976925;28;20801;-68
2020/12/31 14:34:41;;;;;;;12.23;6.30;;;4.60;95.60;;;;;;4975563;28;20179;-68
2020/12/31 14:37:07;;;;;;;10.77;5.83;;;4.60;95.80;;;;;;4976134;28;20205;-69
2020/12/31 14:39:43;;;;;;;9.80;6.50;;;4.60;96.00;;;;;;4977520;28;20597;-69
2020/12/31 14:42:11;;;;;;;13.10;6.10;;;4.50;96.20;;;;;;4975180;28;20482;-68
2020/12/31 14:44:37;;;;;;;9.93;6.27;;;4.50;96.20;;;;;;4974696;28;20437;-68
2020/12/31 14:47:03;;;;;;;11.43;7.03;;;4.50;96.50;;;;;;4974794;28;20414;-69
2020/12/31 14:49:29;;;;;;;11.77;6.43;;;4.50;96.90;;;;;;4974866;28;20410;-68
2020/12/31 14:51:54;;;;;;;9.63;6.33;;;4.50;97.00;;;;;;4974919;28;20449;-68
2020/12/31 14:54:21;;;;;;;14.47;7.87;;;4.40;97.20;;;;;;4974606;28;20207;-69
2020/12/31 14:56:47;;;;;;;16.60;7.80;;;4.40;97.30;;;;;;4976332;28;20228;-68
2020/12/31 14:59:12;;;;;;;15.07;7.93;;;4.30;97.30;;;;;;4975025;28;20434;-68
2020/12/31 15:01:38;;;;;;;12.53;7.30;;;4.30;97.30;;;;;;4974280;28;20516;-68
2020/12/31 15:04:04;;;;;;;15.33;8.43;;;4.20;97.30;;;;;;4972771;28;20201;-68
2020/12/31 15:06:34;;;;;;;17.83;8.83;;;4.10;97.30;;;;;;4976660;28;20578;-68
2020/12/31 15:09:00;;;;;;;11.67;8.03;;;4.10;97.30;;;;;;4976020;28;20201;-68
2020/12/31 15:11:26;;;;;;;14.77;8.33;;;4.00;97.30;;;;;;4976055;28;20896;-68
2020/12/31 15:13:51;;;;;;;13.63;7.47;;;3.90;97.30;;;;;;4976198;28;20178;-68
2020/12/31 15:16:17;;;;;;;11.97;7.20;;;3.90;97.30;;;;;;4969553;28;20425;-68
2020/12/31 15:18:43;;;;;;;15.33;7.10;;;3.80;97.30;;;;;;4974749;28;20303;-69
2020/12/31 15:21:11;;;;;;;13.53;6.87;;;3.80;97.30;;;;;;4974459;28;20214;-68
2020/12/31 15:23:38;;;;;;;16.20;7.10;;;3.70;97.30;;;;;;4974518;28;20532;-69
2020/12/31 15:26:04;;;;;;;15.33;7.47;;;3.70;97.30;;;;;;4974641;28;20414;-68
2020/12/31 15:28:31;;;;;;;14.80;7.30;;;3.70;97.30;;;;;;4975633;28;20421;-69
2020/12/31 15:31:04;;;;;;;13.03;7.17;;;3.60;97.30;;;;;;4974673;28;20463;-68
2020/12/31 15:33:31;;;;;;;11.17;7.37;;;3.60;97.30;;;;;;4974232;28;20425;-68
2020/12/31 15:35:57;;;;;;;12.80;7.20;;;3.60;97.30;;;;;;4974152;28;20423;-69
2020/12/31 15:38:23;;;;;;;10.70;7.33;;;3.70;97.30;;;;;;4974296;28;20418;-69
2020/12/31 15:40:50;;;;;;;12.03;6.40;;;3.70;97.30;;;;;;4973528;28;21076;-69
2020/12/31 15:43:15;;;;;;;12.03;7.17;;;3.70;97.30;;;;;;4974441;28;20173;-69
2020/12/31 15:45:41;;;;;;;11.90;7.10;;;3.70;97.30;;;;;;4975318;28;20406;-68
2020/12/31 15:48:07;;;;;;;13.37;7.80;;;3.70;97.30;;;;;;4975384;28;20179;-69
2020/12/31 15:50:38;;;;;;;12.40;6.60;;;3.80;97.30;;;;;;4974315;28;21289;-69
2020/12/31 15:53:03;;;;;;;15.77;7.87;;;3.80;97.30;;;;;;4974832;28;20844;-69
2020/12/31 15:55:29;;;;;;;14.23;7.23;;;3.80;97.30;;;;;;4975058;28;20414;-69
2020/12/31 16:00:36;;;;;;;13.93;8.27;;;3.80;97.30;;;;;;5090955;27;20984;-71
2020/12/31 16:03:02;;;;;;;12.70;7.77;;;3.90;97.30;;;;;;5090382;28;20421;-70
2020/12/31 16:05:28;;;;;;;12.83;7.37;;;3.90;97.30;;;;;;5089092;28;20515;-70
2020/12/31 16:08:07;;;;;;;15.77;8.50;;;3.90;97.30;;;;;;5081254;28;20406;-70
2020/12/31 16:10:41;;;;;;;17.00;8.50;;;3.90;97.30;;;;;;5069315;28;20438;-69
2020/12/31 16:13:08;;;;;;;15.27;8.50;;;3.90;97.30;;;;;;5071131;28;20428;-69
2020/12/31 16:15:39;;;;;;;18.47;7.60;;;3.90;97.30;;;;;;5070046;28;20405;-70
2020/12/31 16:18:05;;;;;;;12.47;8.00;;;3.90;97.30;;;;;;5069820;28;20421;-71
2020/12/31 16:20:32;;;;;;;13.87;8.20;;;3.90;97.30;;;;;;5089369;28;20423;-69
2020/12/31 16:23:00;;;;;;;13.03;7.27;;;3.90;97.30;;;;;;5089663;28;20519;-69
2020/12/31 16:25:26;;;;;;;14.20;7.77;;;3.90;97.30;;;;;;5089292;28;20465;-72
2020/12/31 16:27:55;;;;;;;13.23;8.60;;;3.90;97.30;;;;;;5090553;28;20420;-70
2020/12/31 16:30:22;;;;;;;15.00;8.93;;;3.90;97.30;;;;;;5077556;28;20247;-70
2020/12/31 16:32:51;;;;;;;14.00;7.90;;;3.90;97.30;;;;;;5068686;28;20875;-69
2020/12/31 16:35:18;;;;;;;11.83;7.93;;;3.90;97.30;;;;;;5068371;28;20421;-70
2020/12/31 16:37:44;;;;;;;9.23;7.30;;;3.90;97.30;;;;;;5083028;28;20462;-70
2020/12/31 16:40:12;;;;;;;11.33;7.90;;;4.00;97.30;;;;;;5081919;28;20483;-71
2020/12/31 16:42:39;;;;;;;12.10;8.30;;;4.00;97.30;;;;;;5088942;28;20195;-70
2020/12/31 16:45:10;;;;;;;12.37;7.77;;;4.00;97.30;;;;;;5088767;28;20420;-70
2020/12/31 16:47:47;;;;;;;12.53;7.03;;;4.00;97.30;;;;;;5088853;28;20443;-70
2020/12/31 16:50:13;;;;;;;13.03;7.83;;;3.90;97.30;;;;;;5088797;28;20427;-71
2020/12/31 16:52:39;;;;;;;14.90;8.00;;;3.90;97.30;;;;;;5088202;28;20413;-69
2020/12/31 16:55:05;;;;;;;16.10;9.50;;;3.90;97.30;;;;;;5087610;28;20417;-69
2020/12/31 16:57:31;;;;;;;16.07;8.90;;;3.90;97.30;;;;;;5067371;28;20186;-69
2020/12/31 16:59:56;;;;;;;15.30;8.40;;;3.80;97.30;;;;;;5067611;28;20468;-70
2020/12/31 17:02:22;;;;;;;14.20;7.70;;;3.90;97.30;;;;;;5069144;28;20727;-70
2020/12/31 17:04:48;;;;;;;13.70;8.20;;;3.90;97.30;;;;;;5069247;28;20167;-71
2020/12/31 17:07:13;;;;;;;13.80;8.70;;;3.90;97.30;;;;;;5067675;28;20655;-69
2020/12/31 17:09:39;;;;;;;14.40;7.37;;;3.90;97.30;;;;;;5067166;28;20767;-69
2020/12/31 17:12:05;;;;;;;15.10;7.50;;;3.90;97.10;;;;;;5055175;28;20183;-69
2020/12/31 17:14:31;;;;;;;13.13;7.40;;;3.90;97.20;;;;;;5055792;28;20176;-70
2020/12/31 17:16:57;;;;;;;13.27;7.33;;;3.90;97.00;;;;;;5054395;28;20833;-69
2020/12/31 17:19:25;;;;;;;11.27;7.50;;;3.90;97.00;;;;;;5055413;28;20245;-70
2020/12/31 17:21:51;;;;;;;11.63;7.10;;;3.90;97.00;;;;;;5054218;28;20199;-69
2020/12/31 17:24:19;;;;;;;11.17;6.10;;;4.00;97.10;;;;;;5054421;28;20414;-69
2020/12/31 17:26:45;;;;;;;8.90;6.30;;;4.10;97.10;;;;;;5054094;28;20194;-70
2020/12/31 17:31:47;;;;;;;7.93;6.00;;;4.10;96.90;;;;;;5090542;27;20560;-70
2020/12/31 17:34:14;;;;;;;11.20;6.43;;;4.10;97.30;;;;;;5090097;27;20401;-73
2020/12/31 17:36:42;;;;;;;10.40;5.90;;;4.10;97.30;;;;;;5083639;28;20442;-69
2020/12/31 17:39:10;;;;;;;8.17;4.67;;;4.10;97.30;;;;;;5090026;28;20413;-72
2020/12/31 17:41:36;;;;;;;6.77;4.73;;;4.20;97.30;;;;;;5088860;28;20455;-70
2020/12/31 17:44:02;;;;;;;9.90;5.90;;;4.20;97.30;;;;;;5090803;28;20381;-70
2020/12/31 17:46:28;;;;;;;8.97;4.80;;;4.20;97.30;;;;;;5090589;28;20804;-69
2020/12/31 17:48:54;;;;;;;9.03;4.90;;;4.20;97.30;;;;;;5089220;28;20174;-70
2020/12/31 17:51:20;;;;;;;15.07;7.27;;;4.30;97.30;;;;;;5089824;27;20275;-70
2020/12/31 17:53:47;;;;;;;10.43;6.00;;;4.30;97.30;;;;;;5090356;28;20461;-71
2020/12/31 17:56:13;;;;;;;12.37;6.60;;;4.30;97.30;;;;;;5081771;28;21008;-70
2020/12/31 17:58:40;;;;;;;11.90;6.00;;;4.30;97.30;;;;;;5068804;28;20432;-69
2020/12/31 18:01:06;;;;;;;10.57;5.73;;;4.20;97.30;;;;;;5068691;28;20947;-70
2020/12/31 18:03:32;;;;;;;10.60;6.80;;;4.20;97.30;;;;;;5070014;28;20402;-70
2020/12/31 18:05:58;;;;;;;11.30;5.70;;;4.20;97.30;;;;;;5069923;28;20412;-70
2020/12/31 18:08:24;;;;;;;9.97;5.57;;;4.20;97.30;;;;;;5069985;28;20181;-70
2020/12/31 18:10:55;;;;;;;11.10;6.17;;;4.20;97.30;;;;;;5068432;28;20233;-71
2020/12/31 18:13:20;;;;;;;15.07;8.07;;;4.20;97.30;;;;;;5069710;28;20860;-70
2020/12/31 18:15:47;;;;;;;9.93;5.93;;;4.20;97.30;;;;;;5069915;28;20437;-70
2020/12/31 18:18:13;;;;;;;13.90;7.73;;;4.20;97.30;;;;;;5068361;28;20221;-69
2020/12/31 18:20:41;;;;;;;11.13;6.13;;;4.20;97.30;;;;;;5068559;28;20479;-70
2020/12/31 18:23:10;;;;;;;9.93;6.73;;;4.20;97.10;;;;;;5068771;28;20418;-70
2020/12/31 18:25:35;;;;;;;8.93;6.40;;;4.20;97.20;;;;;;5068452;28;20436;-70
2020/12/31 18:28:01;;;;;;;9.33;6.10;;;4.20;97.00;;;;;;5067862;28;20414;-69
2020/12/31 18:30:27;;;;;;;8.73;6.17;;;4.20;96.60;;;;;;5067983;28;20214;-69
2020/12/31 18:32:52;;;;;;;10.93;6.90;;;4.20;96.30;;;;;;5068257;28;20168;-70
2020/12/31 18:35:18;;;;;;;9.17;6.60;;;4.20;96.40;;;;;;5068458;28;20183;-70
2020/12/31 18:37:45;;;;;;;10.27;8.20;;;4.20;95.70;;;;;;5068130;28;20172;-69
2020/12/31 18:40:12;;;;;;;11.63;6.80;;;4.30;95.90;;;;;;5083905;28;20647;-71
2020/12/31 18:42:42;;;;;;;13.00;7.00;;;4.30;96.00;;;;;;5079169;28;20566;-71
2020/12/31 18:45:10;;;;;;;12.07;6.70;;;4.30;95.90;;;;;;5075070;28;20417;-70
2020/12/31 18:47:36;;;;;;;11.20;6.90;;;4.30;95.80;;;;;;5074458;28;20417;-70
2020/12/31 18:50:02;;;;;;;11.13;7.00;;;4.20;95.80;;;;;;5075406;28;20536;-70
2020/12/31 18:52:28;;;;;;;11.40;7.23;;;4.30;95.70;;;;;;5075968;28;20220;-71
2020/12/31 18:54:53;;;;;;;11.87;6.90;;;4.30;95.80;;;;;;5074776;28;20518;-70
2020/12/31 18:57:19;;;;;;;12.30;7.00;;;4.30;95.90;;;;;;5074365;28;20209;-69
2020/12/31 18:59:49;;;;;;;13.67;6.90;;;4.30;95.90;;;;;;5058778;28;20180;-70
2020/12/31 19:02:15;;;;;;;17.40;8.73;;;4.30;95.70;;;;;;5065212;28;20440;-69